createdAt,value
2019-02-11T00:00:03.761Z,5.00
2019-02-11T00:02:32.347Z,4.33
2019-02-11T00:05:01.024Z,2.53
2019-02-11T00:07:29.606Z,6.67
2019-02-11T00:09:58.194Z,3.20
2019-02-11T00:12:26.854Z,2.83
2019-02-11T00:14:55.499Z,4.47
2019-02-11T00:17:24.086Z,7.10
2019-02-11T00:19:52.667Z,6.50
2019-02-11T00:22:21.246Z,3.60
2019-02-11T00:24:49.834Z,4.57
2019-02-11T00:27:18.419Z,4.67
2019-02-11T00:29:47.000Z,4.30
2019-02-11T00:32:15.578Z,8.80
2019-02-11T00:34:44.173Z,3.83
2019-02-11T00:37:12.754Z,3.15
2019-02-11T00:39:41.370Z,4.73
2019-02-11T00:42:10.939Z,3.12
2019-02-11T00:44:39.531Z,5.80
2019-02-11T00:47:08.739Z,3.37
2019-02-11T00:49:37.361Z,1.43
2019-02-11T00:52:05.983Z,3.67
2019-02-11T00:54:34.579Z,2.93
2019-02-11T00:57:03.164Z,1.63
2019-02-11T00:59:31.741Z,4.13
2019-02-11T01:02:00.322Z,2.87
2019-02-11T01:04:29.037Z,4.37
2019-02-11T01:06:57.966Z,2.67
2019-02-11T01:09:26.657Z,3.40
2019-02-11T01:11:55.302Z,3.70
2019-02-11T01:14:23.867Z,3.13
2019-02-11T01:16:52.448Z,3.10
2019-02-11T01:19:21.030Z,2.97
2019-02-11T01:21:49.608Z,5.30
2019-02-11T01:24:18.190Z,7.17
2019-02-11T01:26:46.776Z,11.30
2019-02-11T01:29:15.360Z,12.47
2019-02-11T01:31:43.943Z,6.00
2019-02-11T01:34:12.527Z,6.08
2019-02-11T01:36:41.126Z,4.50
2019-02-11T01:39:09.970Z,4.47
2019-02-11T01:41:38.611Z,5.80
2019-02-11T01:44:07.580Z,5.00
2019-02-11T01:46:36.174Z,4.43
2019-02-11T01:49:04.753Z,4.33
2019-02-11T01:51:33.341Z,3.50
2019-02-11T01:54:01.980Z,2.53
2019-02-11T01:56:30.629Z,4.03
2019-02-11T01:58:59.209Z,0.57
2019-02-11T02:01:27.794Z,1.80
2019-02-11T02:03:56.380Z,1.47
2019-02-11T02:06:24.954Z,1.80
2019-02-11T02:08:53.537Z,0.83
2019-02-11T02:11:22.178Z,2.43
2019-02-11T02:13:50.762Z,1.60
2019-02-11T02:16:19.389Z,0.95
2019-02-11T02:18:47.961Z,2.47
2019-02-11T02:21:16.546Z,1.72
2019-02-11T02:23:45.131Z,0.60
2019-02-11T02:26:13.728Z,1.00
2019-02-11T02:28:42.300Z,2.63
2019-02-11T02:31:11.083Z,0.90
2019-02-11T02:33:39.664Z,1.33
2019-02-11T02:36:08.498Z,1.87
2019-02-11T02:38:37.071Z,0.80
2019-02-11T02:41:05.650Z,1.17
2019-02-11T02:43:34.234Z,1.40
2019-02-11T02:46:02.852Z,0.50
2019-02-11T02:48:31.433Z,0.40
2019-02-11T02:51:00.012Z,0.50
2019-02-11T02:53:28.591Z,2.00
2019-02-11T02:55:57.179Z,1.47
2019-02-11T02:58:25.759Z,1.37
2019-02-11T03:00:54.414Z,2.60
2019-02-11T03:03:22.991Z,1.93
2019-02-11T03:05:52.941Z,3.93
2019-02-11T03:08:21.832Z,2.50
2019-02-11T03:10:50.408Z,2.73
2019-02-11T03:13:18.987Z,1.90
2019-02-11T03:15:47.642Z,2.13
2019-02-11T03:18:16.222Z,0.80
2019-02-11T03:20:44.799Z,1.90
2019-02-11T03:23:13.380Z,3.67
2019-02-11T03:25:42.003Z,0.63
2019-02-11T03:28:11.741Z,1.05
2019-02-11T03:30:40.375Z,1.30
2019-02-11T03:33:09.639Z,0.80
2019-02-11T03:35:38.286Z,3.10
2019-02-11T03:38:07.143Z,0.93
2019-02-11T03:40:36.129Z,1.30
2019-02-11T03:43:04.699Z,3.40
2019-02-11T03:45:33.319Z,0.70
2019-02-11T03:48:01.904Z,0.80
2019-02-11T03:50:30.527Z,0.43
2019-02-11T03:52:59.109Z,2.03
2019-02-11T03:55:27.684Z,1.63
2019-02-11T03:57:56.261Z,4.10
2019-02-11T04:00:24.853Z,0.60
2019-02-11T04:02:53.428Z,2.37
2019-02-11T04:05:22.130Z,5.20
2019-02-11T04:07:50.711Z,3.37
2019-02-11T04:10:19.298Z,3.67
2019-02-11T04:12:47.873Z,1.27
2019-02-11T04:15:16.453Z,0.73
2019-02-11T04:17:45.037Z,1.07
2019-02-11T04:20:13.610Z,1.00
2019-02-11T04:22:42.198Z,7.37
2019-02-11T04:25:10.970Z,2.97
2019-02-11T04:27:39.554Z,3.13
2019-02-11T04:30:10.128Z,4.73
2019-02-11T04:32:38.714Z,4.93
2019-02-11T04:35:07.981Z,2.90
2019-02-11T04:37:36.559Z,2.00
2019-02-11T04:40:08.187Z,2.27
2019-02-11T04:42:36.767Z,4.03
2019-02-11T04:45:07.376Z,2.80
2019-02-11T04:47:35.957Z,2.70
2019-02-11T04:50:06.848Z,4.77
2019-02-11T04:52:35.466Z,3.90
2019-02-11T04:55:04.449Z,3.53
2019-02-11T04:57:33.035Z,4.63
2019-02-11T05:00:01.663Z,4.67
2019-02-11T05:02:30.265Z,3.93
2019-02-11T05:04:58.863Z,1.57
2019-02-11T05:07:27.451Z,5.43
2019-02-11T05:09:56.144Z,6.30
2019-02-11T05:12:24.727Z,4.03
2019-02-11T05:14:53.304Z,2.50
2019-02-11T05:17:21.890Z,1.90
2019-02-11T05:19:50.473Z,2.53
2019-02-11T05:22:19.048Z,5.10
2019-02-11T05:24:47.680Z,5.27
2019-02-11T05:27:16.256Z,2.10
2019-02-11T05:29:44.831Z,5.87
2019-02-11T05:32:13.409Z,5.63
2019-02-11T05:34:41.989Z,4.53
2019-02-11T05:37:12.016Z,3.15
2019-02-11T05:39:40.605Z,3.90
2019-02-11T05:42:09.625Z,6.37
2019-02-11T05:44:38.262Z,2.00
2019-02-11T05:47:07.735Z,5.83
2019-02-11T05:49:36.314Z,5.33
2019-02-11T05:52:04.897Z,3.70
2019-02-11T05:54:34.016Z,3.70
2019-02-11T05:57:02.697Z,3.98
2019-02-11T05:59:31.272Z,1.83
2019-02-11T06:01:59.902Z,4.30
2019-02-11T06:04:28.480Z,4.03
2019-02-11T06:06:57.125Z,6.60
2019-02-11T06:09:25.708Z,3.17
2019-02-11T06:11:54.284Z,3.30
2019-02-11T06:14:22.938Z,4.07
2019-02-11T06:16:51.514Z,2.17
2019-02-11T06:19:20.103Z,9.98
2019-02-11T06:21:48.679Z,10.07
2019-02-11T06:24:17.255Z,4.45
2019-02-11T06:26:45.836Z,5.67
2019-02-11T06:29:14.458Z,5.35
2019-02-11T06:31:43.041Z,3.70
2019-02-11T06:34:11.620Z,5.07
2019-02-11T06:36:40.256Z,3.17
2019-02-11T06:39:09.098Z,5.13
2019-02-11T06:41:37.680Z,2.60
2019-02-11T06:44:06.263Z,3.20
2019-02-11T06:46:34.899Z,4.10
2019-02-11T06:49:03.482Z,5.00
2019-02-11T06:51:32.062Z,3.37
2019-02-11T06:54:00.641Z,3.17
2019-02-11T06:56:29.238Z,4.80
2019-02-11T06:58:57.815Z,1.80
2019-02-11T07:01:26.439Z,3.07
2019-02-11T07:03:55.014Z,4.70
2019-02-11T07:06:23.597Z,7.37
2019-02-11T07:08:52.174Z,4.53
2019-02-11T07:11:20.766Z,10.73
2019-02-11T07:13:49.345Z,4.50
2019-02-11T07:16:17.925Z,5.60
2019-02-11T07:18:46.552Z,7.17
2019-02-11T07:21:15.177Z,4.67
2019-02-11T07:23:43.771Z,12.87
2019-02-11T07:26:12.347Z,6.22
2019-02-11T07:28:40.931Z,8.43
2019-02-11T07:31:11.204Z,9.28
2019-02-11T07:33:39.923Z,7.20
2019-02-11T07:36:09.151Z,6.10
2019-02-11T07:38:37.729Z,10.33
2019-02-11T07:41:06.314Z,6.33
2019-02-11T07:43:36.461Z,7.27
2019-02-11T07:46:06.615Z,3.83
2019-02-11T07:48:35.198Z,5.40
2019-02-11T07:51:03.793Z,8.60
2019-02-11T07:53:32.366Z,3.70
2019-02-11T07:56:00.996Z,6.23
2019-02-11T07:58:29.576Z,13.93
2019-02-11T08:00:58.163Z,5.20
2019-02-11T08:03:26.751Z,15.03
2019-02-11T08:05:55.374Z,9.03
2019-02-11T08:08:23.957Z,12.30
2019-02-11T08:10:52.553Z,11.00
2019-02-11T08:13:21.133Z,8.88
2019-02-11T08:15:49.769Z,6.63
2019-02-11T08:18:18.352Z,7.93
2019-02-11T08:20:46.981Z,6.60
2019-02-11T08:23:15.594Z,8.13
2019-02-11T08:25:44.217Z,7.80
2019-02-11T08:28:19.418Z,11.05
2019-02-11T08:30:43.108Z,14.33
2019-02-11T08:33:11.701Z,18.92
2019-02-11T08:35:40.288Z,18.43
2019-02-11T08:38:09.688Z,14.50
2019-02-11T08:40:38.272Z,13.80
2019-02-11T08:43:07.240Z,20.97
2019-02-11T08:45:35.855Z,15.98
2019-02-11T08:48:04.428Z,15.87
2019-02-11T08:50:33.007Z,12.50
2019-02-11T08:53:01.592Z,10.70
2019-02-11T08:55:30.179Z,14.80
2019-02-11T08:57:58.761Z,14.37
2019-02-11T09:00:27.346Z,11.13
2019-02-11T09:02:55.930Z,14.27
2019-02-11T09:05:24.592Z,19.17
2019-02-11T09:07:53.183Z,12.30
2019-02-11T09:10:21.810Z,17.52
2019-02-11T09:12:50.390Z,14.17
2019-02-11T09:15:18.973Z,7.67
2019-02-11T09:17:47.555Z,6.07
2019-02-11T09:20:16.144Z,8.40
2019-02-11T09:22:44.726Z,9.10
2019-02-11T09:25:13.308Z,9.80
2019-02-11T09:27:41.947Z,8.80
2019-02-11T09:30:14.435Z,16.70
2019-02-11T09:32:43.018Z,6.20
2019-02-11T09:35:12.027Z,5.87
2019-02-11T09:37:40.607Z,6.20
2019-02-11T09:40:15.387Z,8.68
2019-02-11T09:42:43.974Z,6.37
2019-02-11T09:45:24.503Z,8.23
2019-02-11T09:47:53.083Z,6.67
2019-02-11T09:50:27.664Z,8.35
2019-02-11T09:52:56.248Z,9.50
2019-02-11T09:55:27.078Z,6.13
2019-02-11T09:57:55.659Z,9.60
2019-02-11T10:00:24.243Z,7.93
2019-02-11T10:02:52.824Z,16.63
2019-02-11T10:05:21.426Z,13.53
2019-02-11T10:07:50.019Z,19.63
2019-02-11T10:10:18.597Z,16.33
2019-02-11T10:12:47.182Z,18.30
2019-02-11T10:15:15.826Z,19.02
2019-02-11T10:17:44.407Z,13.60
2019-02-11T10:20:14.631Z,14.78
2019-02-11T10:22:43.187Z,19.93
2019-02-11T10:25:18.577Z,15.80
2019-02-11T10:27:47.158Z,14.57
2019-02-11T10:30:16.111Z,16.30
2019-02-11T10:32:44.695Z,12.70
2019-02-11T10:35:14.385Z,11.22
2019-02-11T10:37:42.980Z,14.47
2019-02-11T10:40:13.283Z,12.03
2019-02-11T10:42:41.857Z,9.93
2019-02-11T10:45:12.830Z,13.32
2019-02-11T10:47:43.298Z,10.83
2019-02-11T10:50:14.596Z,11.53
2019-02-11T10:52:43.183Z,14.35
2019-02-11T10:55:15.289Z,15.13
2019-02-11T10:57:44.078Z,14.87
2019-02-11T11:00:18.128Z,12.03
2019-02-11T11:02:46.713Z,24.40
2019-02-11T11:05:15.393Z,13.78
2019-02-11T11:07:43.972Z,6.57
2019-02-11T11:10:32.323Z,12.07
2019-02-11T11:13:00.915Z,8.53
2019-02-11T11:15:29.527Z,12.60
2019-02-11T11:17:58.152Z,12.43
2019-02-11T11:20:26.941Z,14.68
2019-02-11T11:22:55.522Z,9.33
2019-02-11T11:25:24.165Z,6.23
2019-02-11T11:27:52.751Z,7.83
2019-02-11T11:30:21.337Z,9.37
2019-02-11T11:32:49.915Z,7.47
2019-02-11T11:35:18.842Z,7.10
2019-02-11T11:37:47.465Z,13.37
2019-02-11T11:40:17.953Z,11.83
2019-02-11T11:42:46.636Z,10.27
2019-02-11T11:45:17.672Z,7.80
2019-02-11T11:47:46.292Z,5.30
2019-02-11T11:50:16.364Z,6.95
2019-02-11T11:52:44.942Z,7.97
2019-02-11T11:55:21.474Z,9.47
2019-02-11T11:57:50.047Z,6.90
2019-02-11T12:00:26.915Z,10.00
2019-02-11T12:03:02.811Z,9.97
2019-02-11T12:05:25.802Z,9.67
2019-02-11T12:07:54.448Z,8.77
2019-02-11T12:10:23.056Z,9.50
2019-02-11T12:12:51.715Z,13.00
2019-02-11T12:15:22.913Z,8.94
2019-02-11T12:17:51.671Z,5.13
2019-02-11T12:20:20.330Z,7.40
2019-02-11T12:22:49.013Z,7.90
2019-02-11T12:25:18.387Z,8.55
2019-02-11T12:27:46.983Z,16.87
2019-02-11T12:30:24.044Z,9.08
2019-02-11T12:32:54.910Z,7.90
2019-02-11T12:35:23.031Z,6.73
2019-02-11T12:37:51.799Z,7.58
2019-02-11T12:40:20.398Z,7.75
2019-02-11T12:42:52.381Z,6.47
2019-02-11T12:45:24.414Z,8.50
2019-02-11T12:47:53.146Z,8.13
2019-02-11T12:50:21.746Z,8.63
2019-02-11T12:52:50.384Z,5.73
2019-02-11T12:55:19.483Z,8.73
2019-02-11T12:57:48.143Z,9.33
2019-02-11T13:00:25.482Z,11.50
2019-02-11T13:02:54.054Z,16.17
2019-02-11T13:05:40.297Z,7.43
2019-02-11T13:07:52.963Z,8.60
2019-02-11T13:10:21.534Z,10.77
2019-02-11T13:12:50.166Z,17.17
2019-02-11T13:15:59.267Z,9.83
2019-02-11T13:17:50.086Z,7.00
2019-02-11T13:20:19.333Z,8.80
2019-02-11T13:22:48.267Z,8.10
2019-02-11T13:25:20.140Z,7.00
2019-02-11T13:27:48.809Z,7.53
2019-02-11T13:30:22.047Z,6.80
2019-02-11T13:32:50.627Z,9.47
2019-02-11T13:35:19.253Z,8.90
2019-02-11T13:37:47.834Z,10.83
2019-02-11T13:40:16.507Z,10.68
2019-02-11T13:42:45.139Z,6.90
2019-02-11T13:45:15.836Z,8.30
2019-02-11T13:47:53.644Z,5.57
2019-02-11T13:50:28.666Z,7.70
2019-02-11T13:52:57.673Z,9.33
2019-02-11T13:55:30.530Z,7.87
2019-02-11T13:57:57.261Z,3.37
2019-02-11T14:00:31.359Z,7.33
2019-02-11T14:03:02.365Z,9.60
2019-02-11T14:05:31.583Z,8.67
2019-02-11T14:08:00.862Z,6.10
2019-02-11T14:10:29.679Z,5.87
2019-02-11T14:12:58.360Z,9.10
2019-02-11T14:15:27.114Z,7.80
2019-02-11T14:18:11.044Z,11.57
2019-02-11T14:20:27.645Z,5.67
2019-02-11T14:22:56.328Z,4.77
2019-02-11T14:25:41.028Z,5.23
2019-02-11T14:27:55.229Z,7.90
2019-02-11T14:30:23.881Z,6.70
2019-02-11T14:32:52.534Z,6.47
2019-02-11T14:35:21.437Z,6.33
2019-02-11T14:37:50.195Z,7.63
2019-02-11T14:40:18.758Z,7.17
2019-02-11T14:42:47.338Z,5.00
2019-02-11T14:45:20.038Z,5.70
2019-02-11T14:47:48.688Z,6.87
2019-02-11T14:50:17.355Z,6.45
2019-02-11T14:52:45.944Z,5.17
2019-02-11T14:55:14.592Z,8.43
2019-02-11T14:57:43.242Z,10.00
2019-02-11T15:00:18.525Z,10.30
2019-02-11T15:02:47.104Z,7.70
2019-02-11T15:05:15.985Z,10.07
2019-02-11T15:07:44.571Z,13.83
2019-02-11T15:10:13.577Z,8.90
2019-02-11T15:12:42.170Z,7.60
2019-02-11T15:15:12.648Z,7.90
2019-02-11T15:17:43.587Z,6.23
2019-02-11T15:20:14.858Z,10.43
2019-02-11T15:22:43.441Z,7.30
2019-02-11T15:25:17.340Z,12.00
2019-02-11T15:27:45.931Z,9.90
2019-02-11T15:30:19.714Z,10.80
2019-02-11T15:32:48.346Z,10.03
2019-02-11T15:35:16.948Z,6.92
2019-02-11T15:37:45.587Z,6.37
2019-02-11T15:40:16.668Z,7.83
2019-02-11T15:42:45.252Z,4.83
2019-02-11T15:45:14.963Z,9.03
2019-02-11T15:47:43.542Z,4.70
2019-02-11T15:50:19.092Z,5.78
2019-02-11T15:52:47.743Z,6.73
2019-02-11T15:55:18.455Z,6.03
2019-02-11T15:57:47.038Z,5.93
2019-02-11T16:00:22.734Z,4.30
2019-02-11T16:02:51.874Z,7.57
2019-02-11T16:05:20.713Z,4.97
2019-02-11T16:07:49.297Z,3.40
2019-02-11T16:10:20.372Z,5.47
2019-02-11T16:12:48.956Z,4.73
2019-02-11T16:15:19.216Z,4.62
2019-02-11T16:17:48.062Z,5.50
2019-02-11T16:20:16.644Z,6.08
2019-02-11T16:22:45.223Z,2.27
2019-02-11T16:25:15.101Z,5.47
2019-02-11T16:27:43.685Z,2.90
2019-02-11T16:30:17.831Z,3.42
2019-02-11T16:32:46.411Z,7.57
2019-02-11T16:35:17.408Z,3.83
2019-02-11T16:37:45.989Z,3.77
2019-02-11T16:40:29.068Z,6.20
2019-02-11T16:42:57.647Z,4.90
2019-02-11T16:45:26.236Z,6.17
2019-02-11T16:47:54.817Z,6.20
2019-02-11T16:50:23.394Z,4.83
2019-02-11T16:52:51.968Z,6.10
2019-02-11T16:55:20.550Z,7.97
2019-02-11T16:57:49.170Z,7.20
2019-02-11T17:00:19.101Z,6.85
2019-02-11T17:02:47.678Z,9.00
2019-02-11T17:05:16.385Z,5.43
2019-02-11T17:07:44.965Z,9.97
2019-02-11T17:10:14.544Z,6.92
2019-02-11T17:12:43.161Z,6.47
2019-02-11T17:15:17.588Z,7.53
2019-02-11T17:17:46.157Z,6.10
2019-02-11T17:20:15.843Z,10.83
2019-02-11T17:22:44.719Z,7.53
2019-02-11T17:25:14.006Z,8.97
2019-02-11T17:27:42.600Z,10.07
2019-02-11T17:30:18.463Z,10.10
2019-02-11T17:32:47.087Z,5.90
2019-02-11T17:35:15.699Z,7.08
2019-02-11T17:37:46.152Z,22.67
2019-02-11T17:40:19.377Z,11.60
2019-02-11T17:48:50.919Z,7.73
2019-02-11T17:51:19.505Z,11.00
2019-02-11T17:53:48.699Z,10.70
2019-02-11T17:56:17.487Z,13.35
2019-02-11T17:58:46.098Z,7.47
2019-02-11T18:01:14.859Z,15.65
2019-02-11T18:03:43.446Z,13.27
2019-02-11T18:06:12.024Z,8.77
2019-02-11T18:08:40.660Z,10.87
2019-02-11T18:11:09.536Z,10.60
2019-02-11T18:13:38.140Z,12.33
2019-02-11T18:16:08.959Z,10.67
2019-02-11T18:18:37.544Z,8.37
2019-02-11T18:21:07.099Z,6.53
2019-02-11T18:23:39.961Z,11.17
2019-02-11T18:26:08.816Z,11.37
2019-02-11T18:28:37.397Z,10.20
2019-02-11T18:31:05.981Z,11.77
2019-02-11T18:33:34.570Z,11.90
2019-02-11T18:36:03.177Z,13.80
2019-02-11T18:38:31.760Z,12.93
2019-02-11T18:41:00.382Z,14.03
2019-02-11T18:43:29.010Z,10.82
2019-02-11T18:45:57.669Z,11.45
2019-02-11T18:48:26.258Z,15.73
2019-02-11T18:50:54.845Z,12.17
2019-02-11T18:53:23.436Z,12.87
2019-02-11T18:55:52.015Z,14.23
2019-02-11T18:58:20.679Z,10.03
2019-02-11T19:00:49.472Z,12.67
2019-02-11T19:03:18.027Z,10.95
2019-02-11T19:05:46.650Z,11.43
2019-02-11T19:08:15.245Z,12.37
2019-02-11T19:10:43.837Z,12.47
2019-02-11T19:13:12.459Z,12.07
2019-02-11T19:15:41.061Z,19.20
2019-02-11T19:18:10.392Z,58.90
2019-02-11T19:20:39.010Z,18.67
2019-02-11T19:23:07.588Z,9.53
2019-02-11T19:25:36.162Z,6.37
2019-02-11T19:28:04.745Z,6.67
2019-02-11T19:30:33.341Z,6.73
2019-02-11T19:33:01.979Z,5.70
2019-02-11T19:35:30.569Z,7.53
2019-02-11T19:37:59.154Z,8.70
2019-02-11T19:40:27.736Z,6.57
2019-02-11T19:42:56.321Z,7.20
2019-02-11T19:45:25.275Z,7.62
2019-02-11T19:47:53.853Z,9.27
2019-02-11T19:50:22.442Z,9.77
2019-02-11T19:52:51.028Z,9.40
2019-02-11T19:55:19.660Z,9.25
2019-02-11T19:57:48.345Z,6.40
2019-02-11T20:00:21.525Z,11.95
2019-02-11T20:02:50.608Z,7.00
2019-02-11T20:05:19.227Z,8.07
2019-02-11T20:07:47.877Z,11.22
2019-02-11T20:10:21.309Z,13.33
2019-02-11T20:12:50.896Z,15.63
2019-02-11T20:15:22.211Z,14.17
2019-02-11T20:17:51.035Z,12.43
2019-02-11T20:20:21.496Z,16.32
2019-02-11T20:22:50.362Z,13.77
2019-02-11T20:25:19.276Z,13.00
2019-02-11T20:27:48.373Z,14.87
2019-02-11T20:30:29.122Z,16.95
2019-02-11T20:32:57.924Z,17.60
2019-02-11T20:35:26.843Z,12.73
2019-02-11T20:37:55.652Z,10.70
2019-02-11T20:40:29.099Z,10.30
2019-02-11T20:42:57.730Z,16.97
2019-02-11T20:45:29.781Z,12.63
2019-02-11T20:47:58.375Z,17.10
2019-02-11T20:50:27.095Z,18.83
2019-02-11T20:52:55.851Z,18.23
2019-02-11T20:55:24.545Z,15.77
2019-02-11T20:58:00.527Z,17.77
2019-02-11T21:00:29.115Z,18.57
2019-02-11T21:02:57.840Z,21.23
2019-02-11T21:05:26.428Z,23.87
2019-02-11T21:07:55.169Z,22.63
2019-02-11T21:10:25.013Z,16.87
2019-02-11T21:12:53.632Z,18.80
2019-02-11T21:15:22.546Z,22.87
2019-02-11T21:17:51.186Z,15.07
2019-02-11T21:20:31.976Z,14.87
2019-02-11T21:23:00.593Z,21.90
2019-02-11T21:25:29.248Z,16.17
2019-02-11T21:27:57.829Z,13.53
2019-02-11T21:30:26.414Z,11.48
2019-02-11T21:32:55.099Z,13.83
2019-02-11T21:35:23.741Z,15.38
2019-02-11T21:37:52.326Z,9.37
2019-02-11T21:40:20.960Z,13.38
2019-02-11T21:42:49.541Z,12.63
2019-02-11T21:45:18.144Z,6.95
2019-02-11T21:47:46.955Z,13.83
2019-02-11T21:50:26.848Z,7.90
2019-02-11T21:52:52.415Z,11.03
2019-02-11T21:55:23.814Z,9.73
2019-02-11T21:57:52.533Z,9.70
2019-02-11T22:00:22.121Z,6.95
2019-02-11T22:02:50.867Z,10.23
2019-02-11T22:05:21.042Z,5.40
2019-02-11T22:07:49.689Z,8.97
2019-02-11T22:10:22.862Z,7.23
2019-02-11T22:12:51.438Z,9.40
2019-02-11T22:15:20.024Z,14.38
2019-02-11T22:17:48.614Z,20.83
2019-02-11T22:20:23.567Z,21.57
2019-02-11T22:22:52.212Z,17.47
2019-02-11T22:25:20.827Z,13.30
2019-02-11T22:27:49.408Z,7.30
2019-02-11T22:30:20.099Z,13.10
2019-02-11T22:32:48.684Z,6.00
2019-02-11T22:35:17.369Z,11.28
2019-02-11T22:37:46.752Z,7.43
2019-02-11T22:40:15.336Z,11.50
2019-02-11T22:42:43.924Z,15.37
2019-02-11T22:45:17.914Z,17.40
2019-02-11T22:47:46.501Z,21.80
2019-02-11T22:50:15.091Z,24.03
2019-02-11T22:52:43.678Z,19.33
2019-02-11T22:55:14.543Z,18.48
2019-02-11T22:57:43.171Z,19.77
2019-02-11T23:00:15.510Z,10.83
2019-02-11T23:02:44.099Z,10.07
2019-02-11T23:05:13.423Z,17.57
2019-02-11T23:07:42.006Z,10.17
2019-02-11T23:10:11.479Z,10.95
2019-02-11T23:12:40.095Z,11.27
2019-02-11T23:15:09.722Z,10.48
2019-02-11T23:17:38.304Z,18.17
2019-02-11T23:20:07.897Z,15.10
2019-02-11T23:22:36.485Z,14.30
2019-02-11T23:25:05.351Z,12.57
2019-02-11T23:27:33.990Z,9.40
2019-02-11T23:30:02.784Z,13.10
2019-02-11T23:32:31.368Z,10.20
2019-02-11T23:35:00.009Z,12.20
2019-02-11T23:37:28.599Z,10.10
2019-02-11T23:39:57.194Z,12.20
2019-02-11T23:42:25.788Z,13.57
2019-02-11T23:44:54.372Z,8.47
2019-02-11T23:47:22.946Z,7.00
2019-02-11T23:49:51.539Z,13.23
2019-02-11T23:52:20.119Z,15.10
2019-02-11T23:54:48.709Z,15.37
2019-02-11T23:57:17.296Z,14.57
2019-02-11T23:59:45.885Z,13.90
